Sander Haaland

Olheiro-Chefe - Valerenga
10 Set 2028
Domingo
Processo

Personalidade

Adaptabilidade (8) Ambição (13) Controvérsia (8) Lealdade (1) Pressão (12) Profissionalismo (8) Espírito Esportivo (5) Temperamento (13)

Perfil

Estilo de Treinamento Democrático
Licença Nacional A
Determinação 11
Gestão de Pessoas 12
Motivação 6
Disciplina 9
Satisfação no Trabalho
100%
Fadiga
0%
Função Olheiro-Chefe
Salário 60.1K p/s
Contrato 14.03.2029

Desempenho

Comportamento Bom
Eficácia do Treinamento
26%
Desenvolvimento do Jogador
20%
Prevenção de Lesões
45%
Implementação Tática
20%

Eventos Recentes

Participou de uma reunião de recrutamento agora
Participou de uma reunião de recrutamento agora
Participou de uma reunião de recrutamento agora
Participou de uma reunião de recrutamento agora
Recomendou um alvo de transferência agora
Recomendou um alvo de transferência 7d atrás
Recomendou um alvo de transferência 7d atrás
Recomendou um alvo de transferência 7d atrás

Monitorando agora

232
Jogador Clube Status Habilidade Confiança Observado Última observação Último voto
Marius Lode Sarpsborg 08 Perdido 101 / 97 65% 1 07.08.2028 -
Kiani Inge Groningen Ativo 108 / 119 40% 3 18.07.2028 -
Hosea Michael Remo Stars Ativo 86 / 89 40% 3 18.07.2028 -
Musa Danjuma Umraniyespor Ativo 105 / 101 40% 1 18.07.2028 -
Jan Bürger Northampton Town Ativo 127 / 121 40% 8 14.07.2028 -
Tyler Fletcher Rotherham United Ativo 118 / 121 40% 5 14.07.2028 -
Artem Nosachev Spartak Moscow Ativo 96 / 94 40% 1 14.07.2028 -
Giovanni Leoni Lincoln City Ativo 150 / 150 40% 3 12.07.2028 -
Cheveyo Tsawa Club Brugge Ativo 134 / 134 40% 1 12.07.2028 -
Thijs Kraaijeveld USM Alger Ativo 122 / 128 40% 2 10.07.2028 -
Kamaldeen Atiemo Wa All Stars Ativo 114 / 114 40% 1 10.07.2028 -
Trey Nyoni Rotherham United Ativo 143 / 144 40% 4 09.07.2028 -
Kwesi Sorotu Badori Berekum Chelsea Ativo 86 / 104 40% 2 09.07.2028 -
Bernardo Lima Porto Ativo 114 / 125 40% 3 07.07.2028 -
Amine Boukamir Charleroi Ativo 100 / 111 40% 1 07.07.2028 -
Luca Meirelles Kudrivka Ativo 131 / 123 40% 3 06.07.2028 -
Ibrahim Fullah Charlton Athletic Ativo 122 / 132 40% 2 06.07.2028 -
Leo Pecover Swindon Town Ativo 103 / 109 40% 5 06.07.2028 -
Ryan McAidoo Oldham Athletic Ativo 131 / 132 40% 5 04.07.2028 -
Paulo Iago Sporting CP Ativo 109 / 114 40% 1 04.07.2028 -
Amin Nabizada Exeter City Ativo 106 / 120 40% 1 04.07.2028 -
Luca Williams-Barnett Walsall Ativo 124 / 128 40% 13 03.07.2028 -
Mads Abrahamsen Zenit Penza Ativo 90 / 92 40% 1 03.07.2028 -
Josh Nichols Oldham Athletic Ativo 123 / 122 40% 6 02.07.2028 -
André Miranda Porto Ativo 124 / 124 40% 2 02.07.2028 -
Igor Tyjon Barrow AFC Ativo 113 / 122 40% 2 30.06.2028 -
Jake Evans Crewe Alexandra Ativo 122 / 129 40% 2 30.06.2028 -
Tomás Peixoto Porto Ativo 102 / 108 40% 1 30.06.2028 -
Kerim Alajbegović Modena Ativo 141 / 137 40% 4 29.06.2028 -
Romelle Donovan Brentford Ativo 139 / 134 40% 3 29.06.2028 -
Jonathan Moalem Cibalia Ativo 103 / 96 40% 1 29.06.2028 -
Martim Cunha Porto Ativo 109 / 115 40% 5 27.06.2028 -
Shea Lacey Crystal Palace Ativo 141 / 138 40% 5 19.06.2028 -
Ben Broggio Mansfield Town Ativo 105 / 120 40% 2 16.06.2028 -
Nathan Mbala FC Metz Ativo 101 / 110 40% 1 15.06.2028 -
Nana Nuhu WAFA Ativo 82 / 102 40% 2 13.06.2028 -
Siyabonga Mabena Bidvest Wits Ativo 119 / 119 40% 3 13.06.2028 -
Ryan Kavuma-McQueen Accrington Stanley Ativo 126 / 130 40% 6 12.06.2028 -
Jamal Iddrissou Pergolettese Ativo 114 / 118 40% 1 10.06.2028 -
Fletcher Boyd Accrington Stanley Ativo 108 / 112 40% 4 08.06.2028 -
Ryan Oné Sheffield United Ativo 129 / 122 40% 1 04.06.2028 -
Abdoulaye Allamine Stars Jeunes Talents Ativo 87 / 84 40% 1 04.06.2028 -
Giovanni Cantizano Fulham Ativo 116 / 125 40% 3 31.05.2028 -
Oskar Pietuszewski Estrela da Amadora Ativo 134 / 137 40% 2 27.05.2028 -
Isaque Obolon Ativo 118 / 128 40% 1 27.05.2028 -
Christos Mouzakitis Hull City Ativo 142 / 143 40% 3 23.05.2028 -
Daniel Banjaqui Benfica Ativo 123 / 127 40% 4 23.05.2028 -
Alphadjo Cissé Lecce Ativo 139 / 133 40% 1 23.05.2028 -
Eduard Ihnatov Ospitaletto Ativo 109 / 111 40% 1 22.05.2028 -
Alwande Booysen SuperSport United Ativo 92 / 108 40% 1 20.05.2028 -
Luke Brooke-Smith Chesterfield Ativo 106 / 111 40% 2 19.05.2028 -
Gabe Forsyth Colchester United Ativo 117 / 119 40% 1 15.05.2028 -
Jorthy Mokio ADO Den Haag Ativo 138 / 136 40% 3 14.05.2028 -
Henrique Carmo Sochi Ativo 128 / 131 40% 2 12.05.2028 -
Oscar Schwartau Norwich City Ativo 124 / 132 40% 2 10.05.2028 -
Gabriel Mec Feirense Ativo 126 / 127 40% 1 09.05.2028 -
Edison Gruezo Guadalajara Ativo 107 / 111 40% 1 07.05.2028 -
Ayden Heaven Portsmouth Ativo 151 / 149 40% 4 06.03.2028 -
Edvard Pettersen Sandefjord Ativo 100 / 121 40% 3 28.02.2028 -
Riquelme Thompson-Jones Accrington Stanley Ativo 115 / 123 40% 2 14.02.2028 -
Fillip Jenssen Riise Tromso Ativo 108 / 105 40% 1 14.02.2028 -
Matvey Bardachev Zenit Ativo 112 / 113 40% 1 14.02.2028 -
Matias Siltanen Malmo FF Ativo 123 / 134 40% 3 24.01.2028 -
Colin Guske Orlando City Ativo 93 / 94 40% 3 22.01.2028 -
Lucas Nicol Mjondalen Ativo 79 / 82 40% 1 22.01.2028 -
Esquerdinha Notts County Ativo 123 / 129 40% 3 20.01.2028 -
Victor Hernandez Santa Fe Ativo 129 / 116 40% 8 19.01.2028 -
Josh Acheampong Everton Ativo 144 / 146 40% 6 19.01.2028 -
Mikkel Hope Haugesund Ativo 101 / 99 40% 2 17.01.2028 -
Honest Ahanor Atalanta Ativo 136 / 141 40% 2 13.01.2028 -
Lucas Bergvall Tottenham Ativo 144 / 157 40% 1 13.01.2028 -
Olivier Mambwa Young Boys Ativo 105 / 114 40% 2 12.01.2028 -
Jair Collahuazo Kudrivka Ativo 115 / 117 40% 1 12.01.2028 -
Francisco Machis Llaneros Ativo 81 / 91 40% 3 09.01.2028 -
Diego Vargas Universidad de Concepcion Ativo 104 / 88 40% 2 09.01.2028 -
Jan Cedilnik Chikhura Ativo 73 / 90 40% 4 08.01.2028 -
Vince Osuji Stabaek Ativo 100 / 112 40% 3 07.01.2028 -
Zane Albarus Shrewsbury Town Ativo 94 / 102 40% 5 06.01.2028 -
Matías Canedo Rampla Juniors Ativo 97 / 80 40% 3 06.01.2028 -
Charlie Gray Fleetwood Town Ativo 92 / 99 40% 5 03.01.2028 -
Idris Ajiya Nasarawa United Ativo 73 / 96 40% 2 31.12.2027 -
Francisco Triver River Plate Ativo 106 / 98 40% 2 31.12.2027 -
Ware Peter Natana Mjondalen Ativo 89 / 93 40% 1 31.12.2027 -
Rafael Moreno Atletico Venezuela Ativo 97 / 108 40% 2 30.12.2027 -
Pedro Baltika Ativo 133 / 150 40% 1 29.12.2027 -
Babis Kostoulas Oxford United Ativo 138 / 144 40% 1 24.12.2027 -
Jayden Danns Bradford City Ativo 142 / 143 40% 1 24.12.2027 -
Abdulrahman Hamisu Niger Tornadoes Ativo 79 / 101 40% 1 22.12.2027 -
Ruben Ramos LA Galaxy Ativo 102 / 103 40% 2 21.12.2027 -
Troy Nyhammer Tromso Ativo 115 / 118 40% 1 21.12.2027 -
Maren Kefas Plateau United Ativo 88 / 104 40% 1 21.12.2027 -
Seb Ferdinand Rotherham United Ativo 122 / 119 40% 2 20.12.2027 -
Valentino Acuña Newell's Old Boys Ativo 115 / 116 40% 1 19.12.2027 -
Archie Gray Southampton Ativo 148 / 151 40% 1 19.12.2027 -
Alex Verón Vélez Ativo 113 / 121 40% 1 18.12.2027 -
Dániel Pintér Inter Miami CF Ativo 95 / 104 40% 1 18.12.2027 -
Léo Llaneros Ativo 82 / 76 40% 1 18.12.2027 -
Adrian Skogmar Malmo FF Ativo 117 / 120 40% 2 09.11.2027 -
Jon Esenga IF Elfsborg Ativo 102 / 96 40% 2 08.11.2027 -
Juan Camilo Córdoba Deportivo Pereira Ativo 79 / 97 40% 1 07.11.2027 -
Mohamed Moussa Koïta Mathare United Ativo 97 / 94 40% 1 04.11.2027 -
Hugo Rojas Instituto Ativo 100 / 103 40% 1 03.11.2027 -
Ivan Borges Defensores Ativo 97 / 81 40% 2 02.11.2027 -
David Asayure Lokomotivi Ativo 85 / 88 40% 1 02.11.2027 -
Andres Casseres Llaneros Ativo 62 / 68 40% 1 08.10.2027 -
Joel Ezra Enyimba Ativo 80 / 103 40% 4 04.10.2027 -
Olaniyi Saheed Kwara United Ativo 103 / 104 40% 3 04.10.2027 -
Chibueze Oputa Rangers International Ativo 87 / 100 40% 1 03.10.2027 -
David Damboama El-Kanemi Warriors Ativo 100 / 85 40% 3 28.09.2027 -
Nazareno Roselli Defensa y Justicia Ativo 115 / 128 40% 1 26.09.2027 -
Mohammed Habib Sarwari Kariobangi Sharks Ativo 66 / 75 40% 1 24.09.2027 -
Facundo Balatti Penarol Ativo 114 / 114 40% 1 23.09.2027 -
Toheeb Adebayo Shooting Stars Ativo 86 / 85 40% 1 23.09.2027 -
Daniel Idoko Ikorodu City Ativo 102 / 100 40% 1 21.09.2027 -
Uzoigwe Odinaka Gazelle Ativo 65 / 86 40% 1 21.09.2027 -
Godwin Oham Warri Wolves Ativo 98 / 95 40% 3 18.09.2027 -
Malick Yalcouyé Brighton Ativo 123 / 130 40% 1 18.09.2027 -
Yiandro Raap Ilves Ativo 90 / 98 40% 1 12.09.2027 -
Gideon Manaseh Ikorodu City Ativo 90 / 108 40% 1 06.09.2027 -
Ignacio Fernández Boston River Ativo 86 / 103 40% 1 06.09.2027 -
Vegard Solheim Haugesund Perdido 90 / 91 65% 1 09.08.2027 Aprovar
Konta Ismaily Ativo 81 / 112 40% 3 22.07.2027 -
Jalal Abdullai Molde Ativo 112 / 122 65% 1 21.07.2027 Aprovar
Isak Vådebu Tromso Ativo 114 / 113 65% 1 16.07.2027 Aprovar
Isaiah Jones Luton Town Ativo 123 / 131 40% 1 15.07.2027 -
Scott Twine Bristol City Ativo 135 / 124 40% 1 15.07.2027 -
Oladapo Afolayan Blackburn Rovers Ativo 124 / 130 40% 1 15.07.2027 -
Riley Owen Stevenage Ativo 110 / 115 40% 3 14.07.2027 -
Gonçalo Oliveira Benfica Ativo 110 / 120 40% 3 13.07.2027 -
Gady Beyuku Blackburn Rovers Ativo 122 / 119 40% 4 06.07.2027 -
Daniel Dennis Ikorodu City Ativo 89 / 102 40% 1 05.07.2027 -
Maxim Radchenko Rostov Ativo 95 / 88 40% 1 04.07.2027 -
George Hoddle Cambridge United Ativo 81 / 88 40% 1 02.07.2027 -
Jenson Jones Walsall Ativo 102 / 100 40% 5 28.06.2027 -
Olalekan Adeleke Remo Stars Ativo 76 / 94 40% 1 28.06.2027 -
Issa Yusuf Shooting Stars Ativo 91 / 82 40% 1 27.06.2027 -
Edwin Asamoah Berekum Chelsea Ativo 92 / 98 40% 2 25.06.2027 -
Ahmed Zaki Masr El Makasa Ativo 63 / 73 40% 1 25.06.2027 -
Andrea Bertoncini Triestina Ativo 83 / 92 40% 3 18.06.2027 -
Rhys Walters Port Vale Ativo 100 / 115 40% 4 18.06.2027 -
Miguel Figueiredo Benfica Ativo 101 / 123 40% 3 14.06.2027 -
Teboho Mokoena Black Aces Ativo 94 / 94 40% 1 14.06.2027 -
Eliás Montiel Borussia Dortmund Ativo 138 / 131 40% 3 13.06.2027 -
Rivaldo Mkhize Black Aces Ativo 81 / 95 40% 2 10.06.2027 -
Sascha Britschgi AC Milan Ativo 121 / 122 40% 4 09.06.2027 -
Joseph Namatane FC Metz Ativo 86 / 103 40% 1 09.06.2027 -
Olivier Leroux Mouscron Ativo 90 / 105 40% 3 07.06.2027 -
Ezra Mayers West Ham United Ativo 113 / 124 40% 3 07.06.2027 -
Maldini Kacurri Grimsby Town Ativo 94 / 98 40% 1 04.06.2027 -
Kazunari Kita Real Sociedad Ativo 91 / 102 40% 5 02.06.2027 -
Tommaso Cecotti Carpi Ativo 88 / 94 40% 3 02.06.2027 -
Leandro Martins Benfica Ativo 102 / 95 40% 2 01.06.2027 -
Federico Matarán Giana Erminio Ativo 96 / 104 40% 5 01.06.2027 -
Caleb Yirenkyi Coventry City Ativo 144 / 146 40% 7 29.05.2027 -
Mpho Khethang FC Diarra Ativo 76 / 79 40% 3 28.05.2027 -
Pedro Vian Seewald Dolomiti Bellunesi Ativo 91 / 102 40% 2 20.05.2027 -
Bade Aluko Leicester City Ativo 110 / 121 40% 2 17.05.2027 -
Riyad Idrissi Cagliari Ativo 128 / 131 40% 2 12.05.2027 -
Afriyie Sulemana WAFA Ativo 84 / 96 40% 1 07.05.2027 -
Samuele di Benedetto Twente Ativo 112 / 116 40% 1 27.04.2027 -
Bence Dárdai VfL Wolfsburg Ativo 127 / 133 40% 1 23.04.2027 -
Lucas Mbamba Westerlo Ativo 87 / 100 40% 1 17.04.2027 -
Tiago Freitas Benfica Ativo 112 / 110 40% 2 13.04.2027 -
Alessandro Zoboletti Sambenedettese Ativo 99 / 89 40% 1 11.04.2027 -
Chari Giwa US Bougouni Ativo 64 / 70 40% 1 09.04.2027 -
Jaygo van Ommeren Utrecht Ativo 102 / 115 40% 1 08.04.2027 -
David Ozoh Derby County Ativo 120 / 134 40% 1 08.04.2027 -
Makar Vysochenko Spartak Moscow Ativo 72 / 85 40% 1 06.04.2027 -
Nathan Moriah-Welsh Mansfield Town Ativo 118 / 107 40% 1 31.03.2027 -
Adam Randell Bristol City Ativo 133 / 125 40% 1 31.03.2027 -
Max Johnston Derby County Ativo 135 / 130 40% 1 31.03.2027 -
Tyrese Campbell Sheffield United Ativo 127 / 125 40% 1 15.03.2027 -
Yousef Salech Cardiff City Ativo 118 / 119 40% 1 15.03.2027 -
Vegard Erlien Tromso Ativo 125 / 120 62% 1 22.02.2027 Aprovar
Lebogang Manyama SuperSport United Ativo 109 / 118 40% 3 04.02.2027 -
Krisztofer Horváth Ujpest Ativo 105 / 117 40% 1 03.02.2027 -
Daniel Karlsbakk Sarpsborg 08 Ativo 123 / 120 40% 3 30.01.2027 -
Bradley Zwane SuperSport United Ativo 107 / 116 40% 6 29.01.2027 -
Ole-Didrik Blomberg Bodo/Glimt Ativo 128 / 131 40% 3 28.01.2027 Observar
Ammar Ramadan DAC Dunajska Streda Ativo 134 / 116 40% 1 28.01.2027 -
Christos Giousis Nea Salamis Ativo 94 / 104 40% 1 28.01.2027 -
Radek Šiler Podbrezova Ativo 96 / 105 40% 1 26.01.2027 -
Sergey Pinyaev Lokomotiv Moscow Ativo 112 / 141 40% 1 23.01.2027 -
Armstrong Oko-Flex Levski Ativo 129 / 123 40% 3 22.01.2027 -
Aldair Faustino Levski Ativo 116 / 125 40% 2 18.01.2027 -
Reda Khadra Qarabag Ativo 139 / 134 40% 4 18.01.2027 -
Xande Spartak 1918 Ativo 94 / 93 40% 1 15.01.2027 -
Juan Pablo Gallego Fehervar Ativo 106 / 107 40% 2 11.01.2027 -
Mikhail Ignatov Sochi Ativo 129 / 106 40% 1 10.01.2027 -
Job Ochieng Real Sociedad Ativo 104 / 104 40% 1 09.01.2027 -
Yanela Mbuthuma Orlando Pirates Ativo 97 / 116 40% 1 09.01.2027 -
Bongani Zungu Ajax Cape Town Ativo 134 / 125 40% 4 07.01.2027 -
Goodman Mosele Chippa United Ativo 102 / 115 40% 1 06.01.2027 -
Erik Botheim Viking Ativo 129 / 128 40% 2 05.01.2027 -
Isaac Matondo Koper Ativo 113 / 118 40% 1 04.01.2027 -
Álex Centelles Levski Ativo 122 / 135 40% 1 02.01.2027 -
Suleiman Camara Slovan Bratislava Ativo 136 / 121 40% 2 31.12.2026 -
Jens Petter Hauge Bodo/Glimt Ativo 131 / 140 40% 3 29.12.2026 Observar
Marcelo Allende Mamelodi Sundowns Ativo 135 / 122 40% 2 29.12.2026 -
Matej Trusa DAC Dunajska Streda Ativo 104 / 101 40% 1 26.12.2026 -
Martin Sekulić Ural Ativo 103 / 115 40% 1 25.12.2026 -
Rubens Dinamo Moscow Ativo 128 / 117 40% 1 23.12.2026 -
Denzel Jubitana Neftchi Ativo 122 / 104 40% 1 22.12.2026 -
Renat Garayev AZAL Ativo 107 / 116 40% 1 22.12.2026 -
Thalente Mbatha Orlando Pirates Ativo 118 / 109 40% 1 18.12.2026 -
Themba Dala Black Aces Ativo 98 / 120 40% 1 12.12.2026 -
Petar Stanić Ludogorets Ativo 144 / 145 40% 2 11.12.2026 -
Faiz Mattoir Septemvri Ativo 106 / 98 40% 1 07.12.2026 -
Brooklyn Poggenpoel Maritzburg United Ativo 99 / 103 40% 1 06.12.2026 -
Oswin Appollis Orlando Pirates Ativo 115 / 108 40% 1 06.12.2026 -
Leo Cornic Tromso Ativo 122 / 113 40% 2 04.12.2026 -
Odin Bjørtuft Bodo/Glimt Ativo 125 / 141 40% 1 24.11.2026 -
Asanele Velebayi Kaizer Chiefs Ativo 101 / 104 40% 1 21.11.2026 -
Emil Breivik Molde Ativo 131 / 124 40% 1 12.11.2026 -
Tyrhys Dolan Espanyol Ativo 131 / 146 40% 1 10.11.2026 -
Tobias Børkeeiet Stabaek Ativo 117 / 114 40% 1 06.11.2026 -
Peter Reinhardsen Sarpsborg 08 Ativo 116 / 117 40% 2 03.11.2026 Mais informações
Evangelos Patoulidis Sandefjord Ativo 108 / 116 40% 1 03.11.2026 -
Zakaria Mugeese Odd Ativo 100 / 110 40% 2 02.11.2026 -
Matías Pellegrini Vélez Ativo 117 / 116 40% 1 31.10.2026 -
Adrian Pereira Rosenborg Ativo 113 / 119 40% 1 30.10.2026 -
Thabang Matuludi Polokwane City Ativo 110 / 112 40% 1 28.10.2026 -
Daniel Kyerewaa Reading Ativo 109 / 117 40% 1 26.10.2026 -
Joe Bell Viking Ativo 134 / 127 40% 1 25.10.2026 -
Frederik Carstensen Sarpsborg 08 Ativo 115 / 110 40% 1 24.10.2026 -
Halldor Stenevik Molde Ativo 127 / 108 40% 2 19.10.2026 -
Simen Bolkan Nordli Rosenborg Ativo 122 / 126 40% 1 18.10.2026 -
Aimar Sher Sarpsborg 08 Ativo 109 / 115 40% 1 09.10.2026 -
Sander Risan Mørk Sandefjord Ativo 127 / 123 40% 1 08.10.2026 -
Lucas Villagra Barracas Central Ativo 78 / 94 40% 1 03.08.2026 -
Rubén Sánchez Elche Ativo 122 / 112 40% 1 01.08.2026 -
Lewis Morgan Toronto FC Ativo 136 / 118 40% 1 01.08.2026 -